createdAt,value
2018-03-31T00:01:13.109Z,6.65
2018-03-31T00:03:39.863Z,8.30
2018-03-31T00:06:07.277Z,7.28
2018-03-31T00:08:34.083Z,7.43
2018-03-31T00:11:00.562Z,7.18
2018-03-31T00:13:27.047Z,7.12
2018-03-31T00:15:53.708Z,7.37
2018-03-31T00:18:20.239Z,8.27
2018-03-31T00:20:46.726Z,7.80
2018-03-31T00:23:14.086Z,7.72
2018-03-31T00:25:40.732Z,7.18
2018-03-31T00:28:07.229Z,7.40
2018-03-31T00:30:33.779Z,7.07
2018-03-31T00:33:01.062Z,7.75
2018-03-31T00:35:27.533Z,7.07
2018-03-31T00:37:54.153Z,8.15
2018-03-31T00:40:20.631Z,7.78
2018-03-31T00:42:47.126Z,7.15
2018-03-31T00:45:13.801Z,7.85
2018-03-31T00:47:40.332Z,7.05
2018-03-31T00:50:06.813Z,8.18
2018-03-31T00:52:33.551Z,8.70
2018-03-31T00:55:00.788Z,8.73
2018-03-31T00:57:28.074Z,8.05
2018-03-31T00:59:54.745Z,8.50
2018-03-31T01:02:21.210Z,9.25
2018-03-31T01:04:47.692Z,8.48
2018-03-31T01:07:14.496Z,8.98
2018-03-31T01:09:40.994Z,8.98
2018-03-31T01:12:07.490Z,8.65
2018-03-31T01:14:34.201Z,9.10
2018-03-31T01:17:00.682Z,9.32
2018-03-31T01:19:27.580Z,8.77
2018-03-31T01:21:54.261Z,9.57
2018-03-31T01:24:20.752Z,9.52
2018-03-31T01:26:47.391Z,9.18
2018-03-31T01:29:14.082Z,10.13
2018-03-31T01:31:40.562Z,9.93
2018-03-31T01:34:07.123Z,10.63
2018-03-31T01:36:33.810Z,9.82
2018-03-31T01:39:00.302Z,11.15
2018-03-31T01:41:26.823Z,10.07
2018-03-31T01:43:53.458Z,10.30
2018-03-31T01:46:19.947Z,10.45
2018-03-31T01:48:46.409Z,10.32
2018-03-31T01:51:12.951Z,10.63
2018-03-31T01:53:39.491Z,10.55
2018-03-31T01:56:06.178Z,10.48
2018-03-31T01:58:33.635Z,10.35
2018-03-31T02:01:00.869Z,11.45
2018-03-31T02:03:27.399Z,11.95
2018-03-31T02:05:54.162Z,12.02
2018-03-31T02:08:21.447Z,12.73
2018-03-31T02:10:47.934Z,13.93
2018-03-31T02:13:14.448Z,13.80
2018-03-31T02:15:40.936Z,13.90
2018-03-31T02:18:07.468Z,12.98
2018-03-31T02:20:34.106Z,14.10
2018-03-31T02:23:01.324Z,15.70
2018-03-31T02:25:27.831Z,15.18
2018-03-31T02:27:54.506Z,15.95
2018-03-31T02:30:20.991Z,15.75
2018-03-31T02:32:47.522Z,15.90
2018-03-31T02:35:14.109Z,17.30
2018-03-31T02:37:40.930Z,17.40
2018-03-31T02:40:07.460Z,15.30
2018-03-31T02:42:34.104Z,16.85
2018-03-31T02:45:00.579Z,16.50
2018-03-31T02:47:27.802Z,15.88
2018-03-31T02:49:54.413Z,17.33
2018-03-31T02:52:20.998Z,17.23
2018-03-31T02:54:47.472Z,17.77
2018-03-31T02:57:14.883Z,17.95
2018-03-31T02:59:41.404Z,15.50
2018-03-31T03:02:07.896Z,16.40
2018-03-31T03:04:35.215Z,19.05
2018-03-31T03:07:01.729Z,17.27
2018-03-31T03:09:28.290Z,17.87
2018-03-31T03:11:54.957Z,18.10
2018-03-31T03:14:22.223Z,18.52
2018-03-31T03:16:49.500Z,17.75
2018-03-31T03:19:16.052Z,17.85
2018-03-31T03:21:42.584Z,18.17
2018-03-31T03:24:09.056Z,18.33
2018-03-31T03:26:35.698Z,19.02
2018-03-31T03:29:02.190Z,19.58
2018-03-31T03:31:28.674Z,19.20
2018-03-31T03:33:56.067Z,19.77
2018-03-31T03:36:22.621Z,18.65
2018-03-31T03:38:49.141Z,20.45
2018-03-31T03:41:15.701Z,18.48
2018-03-31T03:43:43.020Z,20.37
2018-03-31T03:46:10.294Z,19.67
2018-03-31T03:48:36.826Z,20.45
2018-03-31T03:51:03.348Z,18.98
2018-03-31T03:53:30.611Z,20.42
2018-03-31T03:55:57.267Z,18.50
2018-03-31T03:58:23.755Z,21.30
2018-03-31T04:00:50.226Z,19.27
2018-03-31T04:03:16.909Z,20.42
2018-03-31T04:05:43.394Z,20.85
2018-03-31T04:08:10.253Z,20.05
2018-03-31T04:10:36.997Z,21.75
2018-03-31T04:13:03.512Z,21.50
2018-03-31T04:15:30.039Z,19.48
2018-03-31T04:17:57.291Z,19.83
2018-03-31T04:20:24.501Z,23.00
2018-03-31T04:22:50.975Z,21.20
2018-03-31T04:25:17.549Z,21.50
2018-03-31T04:27:44.085Z,20.73
2018-03-31T04:30:10.571Z,21.25
2018-03-31T04:32:37.085Z,19.45
2018-03-31T04:35:03.563Z,22.17
2018-03-31T04:37:30.833Z,20.77
2018-03-31T04:39:58.106Z,21.08
2018-03-31T04:42:24.607Z,22.23
2018-03-31T04:44:51.822Z,20.00
2018-03-31T04:47:18.544Z,20.88
2018-03-31T04:49:45.030Z,21.95
2018-03-31T04:52:12.300Z,21.45
2018-03-31T04:54:39.617Z,21.98
2018-03-31T04:57:06.089Z,21.77
2018-03-31T04:59:33.314Z,21.62
2018-03-31T05:01:59.972Z,20.62
2018-03-31T05:04:27.296Z,21.40
2018-03-31T05:06:53.815Z,21.00
2018-03-31T05:09:20.461Z,21.15
2018-03-31T05:11:46.980Z,20.48
2018-03-31T05:14:13.495Z,21.73
2018-03-31T05:16:40.147Z,20.95
2018-03-31T05:19:06.686Z,22.10
2018-03-31T05:21:33.207Z,20.67
2018-03-31T05:23:59.899Z,22.70
2018-03-31T05:26:26.408Z,20.90
2018-03-31T05:28:52.934Z,20.77
2018-03-31T05:31:20.007Z,21.17
2018-03-31T05:33:46.508Z,18.10
2018-03-31T05:36:13.045Z,20.37
2018-03-31T05:38:39.587Z,18.37
2018-03-31T05:41:06.068Z,22.37
2018-03-31T05:43:32.537Z,20.62
2018-03-31T05:45:59.108Z,19.98
2018-03-31T05:48:25.592Z,20.48
2018-03-31T05:50:52.082Z,19.98
2018-03-31T05:53:18.754Z,19.42
2018-03-31T05:55:45.248Z,18.08
2018-03-31T05:58:11.726Z,21.90
2018-03-31T06:00:38.396Z,19.80
2018-03-31T06:03:05.623Z,18.20
2018-03-31T06:05:32.163Z,18.85
2018-03-31T06:07:58.930Z,19.83
2018-03-31T06:10:26.191Z,19.58
2018-03-31T06:12:53.436Z,19.58
2018-03-31T06:15:20.885Z,19.45
2018-03-31T06:17:47.441Z,19.30
2018-03-31T06:20:14.709Z,19.58
2018-03-31T06:22:41.336Z,18.73
2018-03-31T06:25:08.550Z,17.33
2018-03-31T06:27:35.033Z,19.02
2018-03-31T06:30:01.562Z,16.60
2018-03-31T06:32:28.805Z,16.37
2018-03-31T06:34:56.021Z,17.52
2018-03-31T06:37:22.614Z,17.60
2018-03-31T06:39:49.821Z,17.95
2018-03-31T06:42:16.331Z,16.62
2018-03-31T06:44:48.956Z,17.75
2018-03-31T06:47:15.439Z,17.67
2018-03-31T06:49:41.990Z,17.17
2018-03-31T06:52:08.498Z,16.60
2018-03-31T06:54:34.982Z,17.87
2018-03-31T06:57:01.458Z,17.20
2018-03-31T06:59:28.721Z,17.92
2018-03-31T07:01:55.242Z,17.08
2018-03-31T07:04:22.466Z,18.67
2018-03-31T07:06:49.222Z,18.05
2018-03-31T07:09:15.689Z,17.95
2018-03-31T07:11:42.171Z,18.83
2018-03-31T07:14:08.836Z,17.33
2018-03-31T07:16:36.092Z,16.70
2018-03-31T07:19:02.573Z,16.65
2018-03-31T07:21:29.262Z,16.77
2018-03-31T07:23:55.742Z,16.17
2018-03-31T07:26:22.227Z,17.33
2018-03-31T07:28:48.920Z,17.35
2018-03-31T07:31:15.413Z,17.92
2018-03-31T07:33:41.876Z,17.40
2018-03-31T07:36:08.582Z,17.08
2018-03-31T07:38:35.063Z,15.88
2018-03-31T07:41:01.542Z,16.98
2018-03-31T07:43:28.194Z,16.60
2018-03-31T07:45:54.712Z,17.52
2018-03-31T07:48:21.238Z,15.52
2018-03-31T07:50:47.761Z,16.67
2018-03-31T07:53:14.233Z,15.93
2018-03-31T07:55:40.708Z,16.85
2018-03-31T07:58:07.427Z,15.57
2018-03-31T08:00:34.679Z,16.60
2018-03-31T08:03:01.893Z,15.82
2018-03-31T08:05:28.675Z,15.45
2018-03-31T08:07:55.927Z,15.70
2018-03-31T08:10:22.440Z,15.00
2018-03-31T08:12:49.082Z,17.05
2018-03-31T08:15:15.569Z,16.08
2018-03-31T08:17:42.047Z,15.52
2018-03-31T08:20:08.724Z,15.10
2018-03-31T08:22:35.943Z,16.20
2018-03-31T08:25:02.410Z,15.98
2018-03-31T08:27:29.783Z,17.75
2018-03-31T08:29:56.325Z,16.05
2018-03-31T08:32:22.789Z,16.77
2018-03-31T08:34:49.354Z,15.13
2018-03-31T08:37:15.883Z,16.90
2018-03-31T08:39:42.366Z,16.10
2018-03-31T08:42:08.994Z,16.27
2018-03-31T08:44:35.492Z,17.90
2018-03-31T08:47:02.055Z,16.27
2018-03-31T08:49:29.475Z,16.20
2018-03-31T08:51:55.959Z,15.82
2018-03-31T08:54:23.179Z,17.42
2018-03-31T08:56:49.888Z,17.73
2018-03-31T08:59:16.375Z,16.25
2018-03-31T09:01:42.861Z,16.67
2018-03-31T09:04:09.547Z,19.45
2018-03-31T09:06:36.117Z,18.02
2018-03-31T09:09:02.647Z,18.62
2018-03-31T09:11:30.034Z,18.55
2018-03-31T09:13:57.296Z,16.95
2018-03-31T09:16:23.765Z,19.02
2018-03-31T09:18:50.511Z,17.00
2018-03-31T09:21:17.739Z,17.33
2018-03-31T09:23:44.258Z,15.27
2018-03-31T09:26:10.924Z,17.25
2018-03-31T09:28:37.431Z,17.25
2018-03-31T09:31:03.911Z,16.20
2018-03-31T09:33:30.720Z,16.52
2018-03-31T09:35:57.197Z,18.50
2018-03-31T09:38:24.418Z,17.08
2018-03-31T09:40:51.082Z,15.93
2018-03-31T09:43:17.558Z,16.85
2018-03-31T09:45:44.033Z,18.73
2018-03-31T09:48:10.713Z,18.40
2018-03-31T09:50:37.276Z,17.90
2018-03-31T09:53:03.745Z,16.37
2018-03-31T09:55:30.255Z,17.15
2018-03-31T09:57:57.087Z,17.27
2018-03-31T10:00:29.564Z,15.55
2018-03-31T10:02:56.074Z,16.77
2018-03-31T10:05:23.337Z,17.37
2018-03-31T10:07:50.068Z,16.10
2018-03-31T10:10:17.283Z,17.05
2018-03-31T10:12:43.784Z,15.50
2018-03-31T10:15:10.468Z,17.30
2018-03-31T10:17:36.976Z,17.60
2018-03-31T10:20:03.449Z,18.67
2018-03-31T10:22:30.058Z,19.10
2018-03-31T10:24:56.583Z,17.77
2018-03-31T10:27:23.057Z,18.33
2018-03-31T10:29:49.600Z,17.67
2018-03-31T10:32:16.077Z,17.70
2018-03-31T10:34:42.599Z,18.85
2018-03-31T10:37:09.232Z,19.10
2018-03-31T10:39:36.502Z,19.10
2018-03-31T10:42:03.310Z,18.00
2018-03-31T10:44:30.062Z,18.48
2018-03-31T10:46:57.343Z,17.67
2018-03-31T10:49:23.814Z,18.90
2018-03-31T10:51:51.223Z,18.42
2018-03-31T10:54:17.718Z,17.58
2018-03-31T10:56:44.202Z,19.30
2018-03-31T10:59:10.815Z,19.35
2018-03-31T11:01:37.285Z,17.98
2018-03-31T11:04:03.761Z,19.48
2018-03-31T11:06:30.278Z,19.40
2018-03-31T11:08:56.794Z,20.58
2018-03-31T11:11:23.264Z,18.45
2018-03-31T11:13:49.888Z,17.77
2018-03-31T11:16:16.368Z,17.92
2018-03-31T11:18:43.581Z,17.62
2018-03-31T11:21:10.905Z,18.65
2018-03-31T11:23:37.425Z,18.42
2018-03-31T11:26:04.638Z,17.67
2018-03-31T11:28:31.386Z,17.60
2018-03-31T11:30:57.911Z,19.23
2018-03-31T11:33:24.400Z,17.90
2018-03-31T11:35:50.939Z,18.12
2018-03-31T11:38:17.429Z,16.73
2018-03-31T11:40:43.961Z,18.52
2018-03-31T11:43:10.647Z,17.37
2018-03-31T11:45:37.872Z,17.33
2018-03-31T11:48:04.351Z,17.83
2018-03-31T11:50:31.015Z,16.33
2018-03-31T11:52:58.305Z,17.98
2018-03-31T11:55:24.788Z,17.77
2018-03-31T11:57:51.311Z,18.05
2018-03-31T12:00:17.838Z,17.77
2018-03-31T12:02:44.320Z,17.15
2018-03-31T12:05:10.998Z,18.02
2018-03-31T12:07:38.217Z,16.67
2018-03-31T12:10:04.713Z,16.50
2018-03-31T12:12:31.420Z,17.83
2018-03-31T12:14:57.906Z,17.42
2018-03-31T12:17:24.391Z,15.90
2018-03-31T12:19:51.057Z,17.15
2018-03-31T12:22:17.573Z,16.10
2018-03-31T12:24:44.101Z,16.90
2018-03-31T12:27:10.797Z,18.25
2018-03-31T12:29:38.011Z,18.15
2018-03-31T12:32:05.276Z,16.62
2018-03-31T12:34:31.999Z,17.00
2018-03-31T12:36:59.254Z,17.15
2018-03-31T12:39:26.485Z,16.58
2018-03-31T12:41:53.119Z,18.17
2018-03-31T12:44:19.744Z,17.23
2018-03-31T12:46:46.236Z,17.02
2018-03-31T12:49:13.598Z,18.12
2018-03-31T12:51:40.117Z,17.05
2018-03-31T12:54:07.374Z,18.40
2018-03-31T12:56:34.857Z,17.80
2018-03-31T12:59:01.755Z,17.27
2018-03-31T13:01:28.994Z,16.92
2018-03-31T13:03:55.762Z,18.30
2018-03-31T13:06:22.986Z,18.25
2018-03-31T13:08:49.521Z,16.98
2018-03-31T13:11:16.367Z,17.45
2018-03-31T13:13:43.022Z,16.62
2018-03-31T13:16:09.575Z,18.08
2018-03-31T13:18:36.235Z,19.37
2018-03-31T13:21:03.467Z,20.90
2018-03-31T13:23:29.947Z,19.52
2018-03-31T13:25:56.463Z,20.15
2018-03-31T13:28:22.937Z,20.00
2018-03-31T13:30:49.415Z,20.23
2018-03-31T13:33:16.073Z,20.77
2018-03-31T13:35:42.563Z,22.80
2018-03-31T13:38:09.063Z,21.45
2018-03-31T13:40:35.635Z,21.20
2018-03-31T13:43:02.115Z,19.75
2018-03-31T13:45:29.388Z,22.73
2018-03-31T13:47:56.092Z,24.27
2018-03-31T13:50:22.624Z,22.13
2018-03-31T13:52:49.102Z,22.50
2018-03-31T13:55:15.788Z,21.27
2018-03-31T13:57:42.272Z,24.23
2018-03-31T14:00:08.751Z,21.67
2018-03-31T14:02:35.436Z,21.25
2018-03-31T14:05:01.922Z,22.80
2018-03-31T14:07:28.407Z,23.23
2018-03-31T14:09:55.779Z,34.85
2018-03-31T14:12:22.279Z,29.80
2018-03-31T14:14:48.759Z,25.55
2018-03-31T14:17:15.443Z,23.80
2018-03-31T14:19:41.959Z,25.98
2018-03-31T14:22:08.452Z,20.62
2018-03-31T14:24:35.725Z,22.15
2018-03-31T14:27:02.222Z,22.50
2018-03-31T14:29:28.700Z,21.70
2018-03-31T14:31:55.458Z,23.40
2018-03-31T14:34:21.942Z,22.98
2018-03-31T14:36:49.188Z,21.75
2018-03-31T14:39:15.864Z,24.45
2018-03-31T20:18:16.486Z,27.62
2018-03-31T20:20:42.971Z,28.25
2018-03-31T20:23:10.235Z,29.25
2018-03-31T20:25:36.770Z,33.13
2018-03-31T20:28:03.245Z,33.50
2018-03-31T20:30:29.766Z,37.65
2018-03-31T20:32:56.298Z,41.80
2018-03-31T20:35:22.813Z,44.53
2018-03-31T20:37:49.305Z,42.28
2018-03-31T20:40:16.285Z,45.20
2018-03-31T20:42:43.491Z,41.88
2018-03-31T20:45:11.032Z,42.38
2018-03-31T20:47:37.608Z,44.50
2018-03-31T20:50:04.124Z,44.05
2018-03-31T20:52:30.608Z,45.95
2018-03-31T20:54:58.003Z,46.42
2018-03-31T20:57:24.476Z,46.13
2018-03-31T20:59:50.958Z,45.92
2018-03-31T21:02:17.627Z,45.67
2018-03-31T21:04:44.115Z,43.47
2018-03-31T21:07:10.602Z,40.70
2018-03-31T21:09:37.391Z,40.97
2018-03-31T21:12:04.621Z,38.53
2018-03-31T21:14:31.106Z,42.95
2018-03-31T21:16:57.942Z,39.63
2018-03-31T21:19:24.485Z,37.42
2018-03-31T21:21:50.969Z,38.13
2018-03-31T21:24:17.635Z,38.28
2018-03-31T21:26:44.896Z,40.28
2018-03-31T21:29:12.146Z,40.47
2018-03-31T21:31:39.421Z,43.70
2018-03-31T21:34:05.951Z,42.92
2018-03-31T21:36:32.422Z,47.13
2018-03-31T21:38:58.926Z,51.08
2018-03-31T21:41:25.387Z,60.33
2018-03-31T21:43:51.864Z,63.60
2018-03-31T21:46:18.502Z,65.28
2018-03-31T21:48:45.725Z,65.97
2018-03-31T21:51:12.242Z,68.62
2018-03-31T21:53:38.938Z,66.20
2018-03-31T21:56:06.201Z,64.95
2018-03-31T21:58:33.460Z,64.22
2018-03-31T22:01:00.813Z,63.45
2018-03-31T22:03:27.326Z,63.35
2018-03-31T22:05:53.807Z,60.03
2018-03-31T22:08:20.422Z,58.00
2018-03-31T22:10:47.634Z,54.75
2018-03-31T22:13:20.092Z,56.45
2018-03-31T22:15:48.648Z,53.03
2018-03-31T22:18:15.336Z,51.55
2018-03-31T22:20:41.967Z,50.08
2018-03-31T22:23:08.628Z,49.22
2018-03-31T22:25:35.142Z,47.50
2018-03-31T22:28:01.669Z,46.83
2018-03-31T22:30:28.282Z,44.22
2018-03-31T22:32:54.811Z,47.42
2018-03-31T22:35:22.043Z,49.00
2018-03-31T22:37:49.419Z,48.72
2018-03-31T22:40:16.638Z,42.83
2018-03-31T22:42:43.114Z,41.40
2018-03-31T22:45:09.708Z,41.25
2018-03-31T22:47:36.175Z,39.20
2018-03-31T22:50:03.393Z,41.65
2018-03-31T22:52:29.956Z,44.20
2018-03-31T22:54:57.173Z,45.60
2018-03-31T22:57:23.653Z,45.75
2018-03-31T22:59:50.213Z,45.47
2018-03-31T23:02:16.749Z,44.15
2018-03-31T23:04:43.272Z,45.08
2018-03-31T23:07:10.541Z,45.67
2018-03-31T23:09:37.081Z,46.53
2018-03-31T23:12:03.617Z,47.53
2018-03-31T23:14:30.312Z,49.95
2018-03-31T23:16:56.828Z,52.25
2018-03-31T23:19:23.348Z,52.17
2018-03-31T23:21:50.029Z,57.03
2018-03-31T23:24:16.511Z,59.10
2018-03-31T23:26:43.000Z,62.80
2018-03-31T23:29:10.409Z,63.13
2018-03-31T23:31:36.870Z,62.70
2018-03-31T23:34:03.346Z,62.58
2018-03-31T23:36:30.702Z,58.40
2018-03-31T23:38:57.921Z,57.15
2018-03-31T23:41:24.453Z,60.10
2018-03-31T23:43:51.108Z,59.97
2018-03-31T23:46:17.612Z,61.10
2018-03-31T23:48:44.087Z,61.03
2018-03-31T23:51:10.820Z,54.33
2018-03-31T23:53:37.286Z,51.75
2018-03-31T23:56:04.552Z,52.13
2018-03-31T23:58:31.065Z,49.05
